KMUO

Mountain Home AFB Airport

Mountain Home, Idaho, USA
METAR KMUO 191458Z AUTO 12013KT 10SM CLR 19/04 A3013 RMK AO2 SLP180 T01850035 $
Observed Flight Rules
Aug-19 @ 14:58 UTC (40 minutes ago) Visual Flight Rules
Wind Visibility Clouds
120° at 13 knots 10 miles
  • Clear skies
Temperatures Readings
Current 19°C / 66°F
Dewpoint 4°C / 39°F
Humidity 37%
Altimeter 30.13" Hg
Pressure 1018 hPa
Elevation 913
METAR KMUO 191458Z AUTO 12013KT 10SM CLR 19/04 A3013 RMK AO2 SLP180 T01850035 $
Observed Flight Rules
Aug-19 @ 14:58 UTC
(40 minutes ago)
VFR
Wind Visibility
120° at 13 knots 10 miles
Clouds
  • Clear skies
Temperature Dewpoint
19°C / 66°F 4°C / 39°F
Humidity Altimeter Pressure
37% 30.13" Hg 1018 hPa